Time;durP1;ratioP1;P1;durP2;ratioP2;P2;SDS_P1;SDS_P2;PMS_P1;PMS_P2;Temp;Humidity;BMP_temperature;BMP_pressure;BME280_temperature;BME280_humidity;BME280_pressure;Samples;Min_cycle;Max_cycle;Signal;HPM_P1;HPM_P2
2023/08/01 00:01:04;;;;;;;2.57;2.20;;;;;;;19.13;100.00;95600.38;4968146;28;105220;-61
2023/08/01 00:03:33;;;;;;;3.60;2.47;;;;;;;19.21;100.00;95594.16;4969233;28;103109;-61
2023/08/01 00:05:59;;;;;;;2.37;2.20;;;;;;;19.17;100.00;95590.50;4968778;28;101945;-61
2023/08/01 00:08:26;;;;;;;3.00;2.40;;;;;;;19.34;100.00;95599.34;4971298;28;105338;-61
2023/08/01 00:10:53;;;;;;;2.73;2.40;;;;;;;19.32;100.00;95595.41;5001795;28;101970;-61
2023/08/01 00:13:20;;;;;;;4.60;2.33;;;;;;;19.24;100.00;95604.31;4968423;28;105043;-61
2023/08/01 00:15:47;;;;;;;3.23;2.10;;;;;;;19.18;100.00;95595.56;4967837;28;104005;-61
2023/08/01 00:18:13;;;;;;;4.03;2.50;;;;;;;19.24;100.00;95602.41;4968321;28;102041;-61
2023/08/01 00:20:42;;;;;;;3.80;2.50;;;;;;;19.22;100.00;95587.66;4968106;28;105254;-61
2023/08/01 00:23:09;;;;;;;3.00;2.20;;;;;;;19.18;100.00;95597.50;5001164;28;104026;-61
2023/08/01 00:25:36;;;;;;;2.60;2.30;;;;;;;19.10;100.00;95593.72;4968458;28;102077;-61
2023/08/01 00:28:02;;;;;;;4.20;2.27;;;;;;;19.20;100.00;95595.25;4968400;28;104442;-61
2023/08/01 00:30:29;;;;;;;4.70;2.47;;;;;;;19.15;100.00;95592.75;4971088;28;105046;-61
2023/08/01 00:32:56;;;;;;;3.80;2.50;;;;;;;19.17;100.00;95590.50;4968230;28;104932;-61
2023/08/01 00:35:23;;;;;;;2.40;2.23;;;;;;;19.13;100.00;95584.97;4967605;28;105156;-61
2023/08/01 00:37:51;;;;;;;4.23;2.93;;;;;;;19.18;100.00;95574.00;4968267;28;102246;-62
2023/08/01 00:40:18;;;;;;;4.83;2.63;;;;;;;19.12;100.00;95567.22;4968217;28;105651;-61
2023/08/01 00:42:45;;;;;;;3.77;2.50;;;;;;;19.08;100.00;95554.72;4967423;28;105872;-61
2023/08/01 00:45:12;;;;;;;4.57;2.60;;;;;;;18.94;100.00;95549.56;4968249;28;102125;-61
2023/08/01 00:47:39;;;;;;;3.03;2.73;;;;;;;18.78;100.00;95540.41;4968096;28;105259;-61
2023/08/01 00:50:08;;;;;;;4.10;2.70;;;;;;;18.98;100.00;95542.41;4967641;28;105519;-62
2023/08/01 00:52:35;;;;;;;3.63;3.00;;;;;;;18.96;100.00;95530.38;5004723;28;102167;-61
2023/08/01 00:55:04;;;;;;;3.97;2.77;;;;;;;19.00;100.00;95517.81;4967548;28;105212;-61
2023/08/01 00:57:31;;;;;;;3.53;2.93;;;;;;;18.78;100.00;95521.56;5001228;28;102180;-61
2023/08/01 00:59:58;;;;;;;3.17;2.80;;;;;;;18.71;100.00;95512.41;4967821;28;104940;-61
2023/08/01 01:02:25;;;;;;;3.33;2.50;;;;;;;18.89;100.00;95512.00;4967218;28;105491;-62
2023/08/01 01:04:52;;;;;;;4.17;2.60;;;;;;;18.92;100.00;95505.97;4967715;28;101955;-61
2023/08/01 01:07:20;;;;;;;3.47;2.37;;;;;;;19.07;100.00;95496.56;4967862;28;105282;-61
2023/08/01 01:09:47;;;;;;;3.73;2.70;;;;;;;19.16;100.00;95503.47;4967259;28;105363;-61
2023/08/01 01:12:15;;;;;;;3.20;2.70;;;;;;;18.96;100.00;95504.22;4968864;28;102323;-61
2023/08/01 01:14:42;;;;;;;2.60;2.40;;;;;;;19.25;100.00;95480.00;4973884;28;105600;-61
2023/08/01 01:17:11;;;;;;;2.87;2.40;;;;;;;19.30;100.00;95471.69;4970961;28;101957;-61
2023/08/01 01:19:39;;;;;;;3.10;2.80;;;;;;;19.08;100.00;95469.25;4971136;28;105262;-61
2023/08/01 01:22:10;;;;;;;3.03;2.73;;;;;;;18.93;100.00;95483.31;4970034;28;105482;-61
2023/08/01 01:24:37;;;;;;;3.50;2.80;;;;;;;18.49;100.00;95483.00;4970834;28;101776;-61
2023/08/01 01:27:06;;;;;;;3.10;2.73;;;;;;;18.55;100.00;95460.97;4970949;28;103719;-62
2023/08/01 01:29:34;;;;;;;3.07;2.60;;;;;;;18.58;100.00;95456.84;4970273;28;105114;-61
2023/08/01 01:32:02;;;;;;;2.67;2.47;;;;;;;18.46;100.00;95456.72;4970589;28;102081;-61
2023/08/01 01:34:29;;;;;;;3.57;3.10;;;;;;;18.53;100.00;95457.03;4970760;28;105439;-61
2023/08/01 01:36:56;;;;;;;3.40;2.87;;;;;;;18.36;100.00;95452.47;4973458;28;105067;-61
2023/08/01 01:39:25;;;;;;;3.23;2.93;;;;;;;18.24;100.00;95449.63;4970809;28;105282;-62
2023/08/01 01:41:51;;;;;;;4.47;2.90;;;;;;;18.23;100.00;95450.75;4969935;28;105543;-61
2023/08/01 01:44:18;;;;;;;3.60;2.80;;;;;;;18.16;100.00;95460.41;4970408;28;101924;-61
2023/08/01 01:46:46;;;;;;;3.43;2.80;;;;;;;18.09;100.00;95450.13;4970494;28;105390;-61
2023/08/01 01:49:13;;;;;;;4.30;2.77;;;;;;;18.42;100.00;95448.50;4970093;28;105490;-61
2023/08/01 01:51:40;;;;;;;3.23;2.93;;;;;;;18.17;100.00;95438.56;4970569;28;101978;-61
2023/08/01 01:54:06;;;;;;;4.00;2.70;;;;;;;18.32;100.00;95434.59;4970452;28;105362;-61
2023/08/01 01:56:35;;;;;;;2.80;2.50;;;;;;;18.24;100.00;95421.91;5006443;28;105646;-61
2023/08/01 01:59:02;;;;;;;3.27;2.87;;;;;;;18.48;100.00;95416.81;4970519;28;104891;-61
2023/08/01 02:01:29;;;;;;;2.70;2.50;;;;;;;18.50;100.00;95412.69;4969843;28;104313;-61
2023/08/01 02:03:56;;;;;;;3.13;2.70;;;;;;;18.32;100.00;95408.47;4971694;28;102086;-61
2023/08/01 02:06:23;;;;;;;3.57;2.70;;;;;;;18.24;100.00;95401.19;4970358;28;105580;-61
2023/08/01 02:08:50;;;;;;;3.73;2.83;;;;;;;18.33;100.00;95396.59;4969632;28;104191;-61
2023/08/01 02:11:17;;;;;;;2.50;2.30;;;;;;;18.40;100.00;95393.41;4970354;28;102148;-61
2023/08/01 02:13:45;;;;;;;3.03;2.63;;;;;;;18.42;100.00;95391.97;4971531;28;102086;-61
2023/08/01 02:16:15;;;;;;;2.83;2.63;;;;;;;18.64;100.00;95388.22;4970719;28;102654;-61
2023/08/01 02:18:41;;;;;;;4.83;2.77;;;;;;;18.70;100.00;95384.25;4973379;28;102010;-61
2023/08/01 02:21:08;;;;;;;4.47;2.37;;;;;;;18.84;100.00;95365.91;4968894;28;105363;-61
2023/08/01 02:23:37;;;;;;;2.90;2.70;;;;;;;18.89;100.00;95373.81;4969548;28;102186;-61
2023/08/01 02:26:04;;;;;;;2.70;2.50;;;;;;;18.68;100.00;95367.59;4969845;28;103703;-61
2023/08/01 02:28:31;;;;;;;3.40;2.87;;;;;;;18.58;100.00;95365.31;4969155;28;105413;-61
2023/08/01 02:30:59;;;;;;;3.03;2.83;;;;;;;18.67;100.00;95371.41;4971358;28;101898;-61
2023/08/01 02:33:26;;;;;;;3.10;2.77;;;;;;;18.47;100.00;95366.78;5003051;28;105343;-61
2023/08/01 02:35:53;;;;;;;2.80;2.60;;;;;;;18.60;100.00;95368.44;4969249;28;106306;-62
2023/08/01 02:38:20;;;;;;;3.60;3.10;;;;;;;18.50;100.00;95371.50;4969680;28;102165;-61
2023/08/01 02:40:47;;;;;;;2.80;2.60;;;;;;;18.58;100.00;95370.69;4972595;28;105752;-61
2023/08/01 02:43:14;;;;;;;3.00;2.80;;;;;;;18.58;100.00;95362.59;4969524;28;101847;-61
2023/08/01 02:45:43;;;;;;;3.13;2.80;;;;;;;18.30;100.00;95367.59;4969875;28;105260;-61
2023/08/01 02:48:11;;;;;;;4.33;2.90;;;;;;;18.29;100.00;95354.47;4969018;28;105567;-61
2023/08/01 02:50:37;;;;;;;3.37;3.07;;;;;;;18.30;100.00;95350.66;4969449;28;102019;-61
2023/08/01 02:53:05;;;;;;;3.13;2.83;;;;;;;18.23;100.00;95347.69;4969568;28;105635;-61
2023/08/01 02:55:32;;;;;;;3.37;3.00;;;;;;;18.40;100.00;95339.56;4968827;28;105394;-62
2023/08/01 02:58:00;;;;;;;2.73;2.47;;;;;;;18.52;100.00;95343.13;4969379;28;102256;-62
2023/08/01 03:00:26;;;;;;;3.03;2.73;;;;;;;18.41;100.00;95336.53;4969387;28;104959;-62
2023/08/01 03:02:53;;;;;;;2.90;2.57;;;;;;;18.47;100.00;95334.47;4973467;28;102872;-61
2023/08/01 03:05:22;;;;;;;2.93;2.63;;;;;;;18.40;100.00;95331.47;4969299;28;104897;-62
2023/08/01 03:07:49;;;;;;;4.20;2.83;;;;;;;18.30;100.00;95334.50;4968634;28;105540;-62
2023/08/01 03:10:16;;;;;;;2.90;2.70;;;;;;;18.24;100.00;95322.34;4969364;28;102005;-62
2023/08/01 03:12:43;;;;;;;2.50;2.30;;;;;;;18.52;100.00;95323.53;4969129;28;105549;-62
2023/08/01 03:15:11;;;;;;;3.20;2.73;;;;;;;18.37;100.00;95326.75;4968590;28;105157;-62
2023/08/01 03:17:38;;;;;;;3.80;2.57;;;;;;;18.35;100.00;95324.38;4969267;28;102096;-62
2023/08/01 03:20:10;;;;;;;2.93;2.53;;;;;;;18.50;100.00;95312.28;4969000;28;103764;-62
2023/08/01 03:22:39;;;;;;;3.00;2.77;;;;;;;18.40;100.00;95301.88;4968549;28;105056;-62
2023/08/01 03:25:07;;;;;;;4.10;3.20;;;;;;;18.53;100.00;95314.31;4972395;28;101928;-62
2023/08/01 03:27:34;;;;;;;2.87;2.67;;;;;;;18.52;100.00;95297.38;4968374;28;105564;-62
2023/08/01 03:30:01;;;;;;;2.97;2.70;;;;;;;18.46;100.00;95305.94;4969167;28;102128;-62
2023/08/01 03:32:28;;;;;;;4.90;2.80;;;;;;;18.41;100.00;95303.44;4968938;28;105938;-62
2023/08/01 03:34:55;;;;;;;4.70;3.17;;;;;;;18.33;100.00;95301.59;4968920;28;103000;-62
2023/08/01 03:37:22;;;;;;;3.10;2.80;;;;;;;18.33;100.00;95304.28;4969038;28;101904;-62
2023/08/01 03:39:51;;;;;;;3.03;2.73;;;;;;;18.32;100.00;95297.34;4968863;28;104741;-62
2023/08/01 03:42:17;;;;;;;4.07;2.70;;;;;;;18.39;100.00;95300.28;4968134;28;105327;-62
2023/08/01 03:44:46;;;;;;;3.70;2.90;;;;;;;18.22;100.00;95294.97;4968570;28;101992;-62
2023/08/01 03:47:13;;;;;;;3.07;2.50;;;;;;;18.21;100.00;95309.56;4971874;28;105329;-62
2023/08/01 03:49:40;;;;;;;3.93;3.13;;;;;;;18.20;100.00;95318.75;4968772;28;101948;-62
2023/08/01 03:52:07;;;;;;;3.10;2.80;;;;;;;18.13;100.00;95316.53;4968612;28;105312;-62
2023/08/01 03:54:34;;;;;;;3.27;2.93;;;;;;;18.09;100.00;95322.91;4968057;28;105184;-62
2023/08/01 03:57:03;;;;;;;3.47;2.80;;;;;;;18.30;100.00;95329.13;4970190;28;101865;-61
2023/08/01 03:59:30;;;;;;;3.17;2.87;;;;;;;18.14;100.00;95328.88;4968463;28;105527;-61
2023/08/01 04:01:57;;;;;;;4.10;3.20;;;;;;;18.12;100.00;95322.25;4967921;28;105917;-62
2023/08/01 04:04:24;;;;;;;5.97;2.80;;;;;;;18.27;100.00;95314.44;4968313;28;101947;-61
2023/08/01 04:06:51;;;;;;;2.83;2.63;;;;;;;18.23;100.00;95313.50;4972730;28;102382;-62
2023/08/01 04:09:18;;;;;;;7.00;3.07;;;;;;;18.20;100.00;95313.34;4969884;28;101880;-62
2023/08/01 04:11:44;;;;;;;4.40;2.97;;;;;;;18.14;100.00;95320.03;4970009;28;102487;-62
2023/08/01 04:14:13;;;;;;;3.67;2.77;;;;;;;18.15;100.00;95319.69;4969378;28;102074;-62
2023/08/01 04:16:41;;;;;;;3.27;2.90;;;;;;;18.23;100.00;95323.47;4969853;28;101886;-62
2023/08/01 04:19:08;;;;;;;3.33;3.07;;;;;;;18.32;100.00;95321.56;4968491;28;105704;-62
2023/08/01 04:21:35;;;;;;;4.97;3.00;;;;;;;18.19;100.00;95330.59;4968522;28;102584;-62
2023/08/01 04:24:02;;;;;;;4.40;3.10;;;;;;;18.14;100.00;95325.41;4969630;28;101853;-61
2023/08/01 04:26:28;;;;;;;4.07;2.80;;;;;;;18.05;100.00;95330.81;4968462;28;105293;-61
2023/08/01 04:28:55;;;;;;;5.10;3.20;;;;;;;18.19;100.00;95330.59;4972742;28;102868;-62
2023/08/01 04:31:23;;;;;;;3.87;3.07;;;;;;;18.18;100.00;95343.28;4969741;28;102469;-61
2023/08/01 04:33:50;;;;;;;3.73;3.10;;;;;;;18.14;100.00;95346.94;4969002;28;102511;-61
2023/08/01 04:36:17;;;;;;;3.87;3.27;;;;;;;18.17;100.00;95344.41;4968258;28;101882;-61
2023/08/01 04:38:44;;;;;;;3.93;3.27;;;;;;;18.18;100.00;95353.25;4968413;28;105650;-61
2023/08/01 04:41:11;;;;;;;4.30;3.27;;;;;;;18.12;100.00;95349.16;4969365;28;102534;-61
2023/08/01 04:43:38;;;;;;;4.47;3.37;;;;;;;18.18;100.00;95366.69;4969411;28;101771;-61
2023/08/01 04:46:05;;;;;;;3.90;3.47;;;;;;;18.14;100.00;95369.25;4968758;28;105726;-61
2023/08/01 04:48:33;;;;;;;4.80;3.13;;;;;;;18.16;100.00;95371.63;4972456;28;102736;-61
2023/08/01 04:51:00;;;;;;;3.83;3.20;;;;;;;18.20;100.00;95384.09;4974955;28;102250;-61
2023/08/01 04:53:27;;;;;;;4.67;3.10;;;;;;;18.22;100.00;95370.31;4972360;28;102754;-61
2023/08/01 04:55:53;;;;;;;6.47;3.20;;;;;;;18.21;100.00;95374.13;4972907;28;102325;-61
2023/08/01 04:58:20;;;;;;;3.63;3.20;;;;;;;18.19;100.00;95369.06;4972831;28;102479;-62
2023/08/01 05:00:47;;;;;;;4.93;3.50;;;;;;;18.12;100.00;95381.44;4970777;28;105784;-62
2023/08/01 05:03:14;;;;;;;3.50;3.20;;;;;;;18.05;100.00;95381.91;4972463;28;101895;-62
2023/08/01 05:05:42;;;;;;;3.60;3.30;;;;;;;17.82;100.00;95390.56;4972571;28;102661;-62
2023/08/01 05:08:09;;;;;;;3.80;3.50;;;;;;;17.84;100.00;95404.47;4971898;28;101765;-62
2023/08/01 05:10:36;;;;;;;5.47;3.40;;;;;;;17.75;100.00;95403.66;4971317;28;101981;-62
2023/08/01 05:13:03;;;;;;;4.27;3.60;;;;;;;17.78;100.00;95401.16;4973864;28;105632;-62
2023/08/01 05:15:30;;;;;;;3.83;3.40;;;;;;;17.77;100.00;95406.84;4972388;28;101882;-61
2023/08/01 05:17:57;;;;;;;6.40;3.50;;;;;;;17.80;100.00;95419.66;4971058;28;105277;-62
2023/08/01 05:20:25;;;;;;;4.20;3.33;;;;;;;17.91;100.00;95418.19;4971344;28;102619;-61
2023/08/01 05:22:54;;;;;;;7.30;3.90;;;;;;;17.91;100.00;95424.38;4970582;28;101803;-61
2023/08/01 05:25:21;;;;;;;4.27;3.50;;;;;;;17.80;100.00;95419.66;4971049;28;105329;-61
2023/08/01 05:27:48;;;;;;;3.57;3.27;;;;;;;17.92;100.00;95415.19;4970337;28;105786;-61
2023/08/01 05:30:15;;;;;;;4.30;3.30;;;;;;;17.94;100.00;95412.97;4972213;28;101963;-61
2023/08/01 05:32:43;;;;;;;4.87;3.40;;;;;;;17.86;100.00;95415.69;4970626;28;105746;-61
2023/08/01 05:35:10;;;;;;;5.20;3.50;;;;;;;17.87;100.00;95422.66;4974804;28;102549;-61
2023/08/01 05:37:37;;;;;;;5.23;3.73;;;;;;;17.89;100.00;95423.94;4970547;28;105291;-62
2023/08/01 05:40:07;;;;;;;4.77;3.83;;;;;;;17.91;100.00;95407.44;4970250;28;104297;-61
2023/08/01 05:42:33;;;;;;;7.73;3.47;;;;;;;18.01;100.00;95412.50;4972049;28;101981;-61
2023/08/01 05:45:00;;;;;;;5.63;4.00;;;;;;;18.03;100.00;95410.28;4971909;28;102435;-61
2023/08/01 05:47:27;;;;;;;5.40;3.60;;;;;;;17.97;100.00;95414.22;4971375;28;102195;-61
2023/08/01 05:49:54;;;;;;;5.60;3.73;;;;;;;18.10;100.00;95407.88;4971899;28;101854;-62
2023/08/01 05:52:21;;;;;;;4.40;3.70;;;;;;;18.01;100.00;95407.09;4970315;28;105675;-62
2023/08/01 05:54:48;;;;;;;4.90;3.70;;;;;;;18.04;100.00;95411.88;4971301;28;102712;-61
2023/08/01 05:57:16;;;;;;;4.73;3.40;;;;;;;18.01;100.00;95413.28;4973404;28;101918;-62
2023/08/01 05:59:43;;;;;;;5.00;3.20;;;;;;;18.11;100.00;95415.66;4969260;28;105596;-62
2023/08/01 06:02:10;;;;;;;6.90;3.63;;;;;;;18.16;100.00;95409.28;4970294;28;102004;-62
2023/08/01 06:04:38;;;;;;;4.20;3.30;;;;;;;18.08;100.00;95412.78;4971334;28;102450;-62
2023/08/01 06:07:06;;;;;;;4.03;3.63;;;;;;;18.10;100.00;95402.50;4970968;28;103105;-62
2023/08/01 06:09:33;;;;;;;5.47;3.30;;;;;;;18.10;100.00;95408.66;4971588;28;101947;-62
2023/08/01 06:12:00;;;;;;;4.30;3.20;;;;;;;18.04;100.00;95409.94;4970221;28;105199;-62
2023/08/01 06:14:28;;;;;;;4.10;3.40;;;;;;;18.19;100.00;95395.19;4970733;28;102779;-61
2023/08/01 06:16:55;;;;;;;4.37;3.97;;;;;;;18.52;100.00;95390.84;4974737;28;101918;-66
2023/08/01 06:19:22;;;;;;;5.60;3.90;;;;;;;18.07;100.00;95411.19;4970903;28;101808;-64
2023/08/01 06:21:49;;;;;;;4.10;3.70;;;;;;;18.04;100.00;95422.63;4969552;28;102048;-68
2023/08/01 06:24:16;;;;;;;5.03;3.33;;;;;;;18.15;100.00;95419.25;4971314;28;102398;-68
2023/08/01 06:26:42;;;;;;;4.00;3.60;;;;;;;18.32;100.00;95407.69;4970640;28;102702;-74
2023/08/01 06:29:09;;;;;;;3.80;3.43;;;;;;;18.21;100.00;95414.50;4969910;28;101971;-70
2023/08/01 06:31:38;;;;;;;4.50;4.00;;;;;;;17.97;100.00;95414.22;4971367;28;102352;-68
2023/08/01 06:34:05;;;;;;;6.63;4.10;;;;;;;18.15;100.00;95391.56;4969246;28;105341;-69
2023/08/01 06:36:32;;;;;;;4.47;4.07;;;;;;;18.14;100.00;95400.75;4969624;28;101940;-61
2023/08/01 06:38:59;;;;;;;4.77;4.20;;;;;;;17.98;100.00;95405.06;5005831;28;104111;-61
2023/08/01 06:41:26;;;;;;;8.77;4.30;;;;;;;18.44;100.00;95395.13;4971220;28;102141;-61
2023/08/01 06:43:52;;;;;;;9.00;4.20;;;;;;;18.37;100.00;95407.50;4969596;28;105536;-62
2023/08/01 06:46:19;;;;;;;4.93;4.33;;;;;;;18.27;100.00;95402.44;4970542;28;102363;-61
2023/08/01 06:48:48;;;;;;;5.87;3.83;;;;;;;17.99;100.00;95409.34;4969465;28;102100;-70
2023/08/01 06:51:15;;;;;;;5.60;4.30;;;;;;;17.66;100.00;95416.34;4969527;28;104999;-62
2023/08/01 06:53:41;;;;;;;4.63;3.90;;;;;;;17.89;100.00;95415.06;4969040;28;105023;-62
2023/08/01 06:56:08;;;;;;;5.73;3.87;;;;;;;18.34;100.00;95394.69;4969625;28;101939;-62
2023/08/01 06:58:35;;;;;;;5.20;4.27;;;;;;;18.18;100.00;95394.41;4969474;28;105382;-62
2023/08/01 07:01:02;;;;;;;4.13;3.70;;;;;;;17.99;100.00;95387.81;4972125;28;105769;-62
2023/08/01 07:03:29;;;;;;;6.10;4.00;;;;;;;18.25;100.00;95391.22;4969013;28;104913;-62
2023/08/01 07:05:57;;;;;;;4.10;3.70;;;;;;;18.12;100.00;95382.25;4968704;28;105544;-62
2023/08/01 07:08:24;;;;;;;9.63;5.03;;;;;;;18.83;100.00;95373.22;4969360;28;102122;-62
2023/08/01 07:10:51;;;;;;;9.33;4.93;;;;;;;18.98;100.00;95361.09;4968222;28;105246;-62
2023/08/01 07:13:19;;;;;;;6.90;4.23;;;;;;;19.05;100.00;95358.66;4968647;28;105014;-62
2023/08/01 07:15:46;;;;;;;6.33;4.57;;;;;;;18.71;100.00;95351.59;4970694;28;102174;-62
2023/08/01 07:18:13;;;;;;;4.60;3.70;;;;;;;18.25;100.00;95357.00;4969003;28;105835;-62
2023/08/01 07:20:40;;;;;;;4.87;4.00;;;;;;;18.45;100.00;95363.59;4968223;28;105716;-62
2023/08/01 07:23:08;;;;;;;4.97;4.47;;;;;;;18.38;100.00;95366.03;4972721;28;101846;-62
2023/08/01 07:25:35;;;;;;;5.93;4.40;;;;;;;18.44;100.00;95367.41;4968367;28;105542;-62
2023/08/01 07:28:03;;;;;;;4.23;3.83;;;;;;;18.33;100.00;95366.19;4969066;28;101959;-62
2023/08/01 07:30:30;;;;;;;7.87;4.50;;;;;;;18.53;100.00;95360.09;4969102;28;105252;-62
2023/08/01 07:32:57;;;;;;;4.53;3.90;;;;;;;18.73;100.00;95352.06;4968282;28;105418;-62
2023/08/01 07:35:23;;;;;;;5.93;4.37;;;;;;;18.78;100.00;95353.75;4970364;28;102023;-62
2023/08/01 07:37:50;;;;;;;5.30;3.97;;;;;;;18.84;100.00;95344.38;4969021;28;105697;-62
2023/08/01 07:40:19;;;;;;;5.20;3.93;;;;;;;18.85;100.00;95335.19;4968191;28;105515;-62
2023/08/01 07:42:46;;;;;;;4.33;3.90;;;;;;;18.97;100.00;95333.34;4968788;28;102012;-62
2023/08/01 07:45:13;;;;;;;5.10;3.73;;;;;;;19.20;100.00;95336.50;4971640;28;105088;-62
2023/08/01 07:47:40;;;;;;;6.27;4.30;;;;;;;19.28;100.00;95346.44;4968634;28;101975;-62
2023/08/01 07:50:07;;;;;;;7.60;4.37;;;;;;;19.19;100.00;95359.97;4968972;28;104896;-62
2023/08/01 07:52:34;;;;;;;9.30;4.77;;;;;;;19.00;100.00;95359.63;4969460;28;102904;-62
2023/08/01 07:55:01;;;;;;;5.30;4.30;;;;;;;18.94;100.00;95357.47;4968878;28;102133;-62
2023/08/01 07:57:29;;;;;;;4.33;3.93;;;;;;;18.73;100.00;95359.31;4968751;28;105246;-62
2023/08/01 07:59:56;;;;;;;4.73;3.90;;;;;;;19.11;100.00;95341.97;4968190;28;105926;-62
2023/08/01 08:02:23;;;;;;;6.47;4.00;;;;;;;19.17;100.00;95329.06;5001814;28;102018;-62
2023/08/01 08:04:50;;;;;;;4.43;4.00;;;;;;;19.32;100.00;95333.88;5001538;28;105779;-62
2023/08/01 08:07:16;;;;;;;5.10;3.80;;;;;;;19.40;100.00;95330.34;4971471;28;101975;-62
2023/08/01 08:09:43;;;;;;;5.20;4.20;;;;;;;19.29;100.00;95323.78;4969970;28;102578;-62
2023/08/01 08:12:10;;;;;;;6.63;4.70;;;;;;;19.67;100.00;95321.69;4967929;28;105600;-62
2023/08/01 08:14:38;;;;;;;4.43;3.60;;;;;;;19.29;100.00;95319.16;4968614;28;102087;-62
2023/08/01 08:17:05;;;;;;;6.07;4.10;;;;;;;19.27;100.00;95307.94;4968252;28;104933;-62
2023/08/01 08:19:32;;;;;;;5.87;3.30;;;;;;;19.32;100.00;95296.16;4967831;28;105883;-62
2023/08/01 08:21:59;;;;;;;4.43;3.10;;;;;;;18.84;100.00;95295.88;4970130;28;101944;-62
2023/08/01 08:24:26;;;;;;;3.37;3.07;;;;;;;18.77;100.00;95296.44;4971765;28;105312;-62
2023/08/01 08:26:53;;;;;;;3.67;3.17;;;;;;;18.55;100.00;95295.94;4974593;28;105331;-62
2023/08/01 08:29:20;;;;;;;3.73;3.30;;;;;;;18.86;100.00;95299.06;4971876;28;104974;-62
2023/08/01 08:31:48;;;;;;;3.17;2.90;;;;;;;18.92;100.00;95298.50;4971186;28;105200;-62
2023/08/01 08:34:15;;;;;;;4.60;3.40;;;;;;;19.04;100.00;95297.78;4971761;28;101921;-62
2023/08/01 08:36:42;;;;;;;4.03;3.63;;;;;;;18.89;100.00;95301.06;4971606;28;105877;-62
2023/08/01 08:39:09;;;;;;;4.20;3.20;;;;;;;19.23;100.00;95298.16;4971194;28;105082;-62
2023/08/01 08:41:40;;;;;;;3.03;2.73;;;;;;;19.08;100.00;95296.78;4971856;28;102045;-62
2023/08/01 08:44:09;;;;;;;3.00;2.80;;;;;;;19.07;100.00;95291.75;4971671;28;105659;-62
2023/08/01 08:46:42;;;;;;;4.07;3.13;;;;;;;18.83;100.00;95286.22;4970734;28;105377;-62
2023/08/01 08:49:11;;;;;;;3.00;2.80;;;;;;;18.84;100.00;95274.34;4974904;28;101899;-62
2023/08/01 08:51:38;;;;;;;3.07;2.87;;;;;;;18.66;100.00;95259.44;4970994;28;105422;-62
2023/08/01 08:54:06;;;;;;;3.30;3.00;;;;;;;18.70;100.00;95265.75;4971373;28;102059;-61
2023/08/01 08:56:35;;;;;;;3.03;2.80;;;;;;;18.60;100.00;95269.63;4971316;28;105203;-62
2023/08/01 08:59:01;;;;;;;3.57;3.10;;;;;;;18.62;100.00;95261.19;4970741;28;105450;-62
2023/08/01 09:01:28;;;;;;;3.20;2.90;;;;;;;18.65;100.00;95255.16;4972829;28;101855;-62
2023/08/01 09:03:56;;;;;;;3.37;3.03;;;;;;;18.75;100.00;95249.38;4972705;28;102558;-62
2023/08/01 09:06:30;;;;;;;3.20;2.90;;;;;;;18.78;100.00;95241.44;4971830;28;103309;-62
2023/08/01 09:09:02;;;;;;;3.47;3.17;;;;;;;18.69;100.00;95238.00;4972761;28;102133;-62
2023/08/01 09:11:39;;;;;;;3.30;3.00;;;;;;;18.79;100.00;95236.81;4973848;28;103753;-62
2023/08/01 09:14:06;;;;;;;3.27;2.93;;;;;;;18.87;100.00;95222.50;4970978;28;102030;-62
2023/08/01 09:16:34;;;;;;;3.00;2.73;;;;;;;18.82;100.00;95225.41;4971065;28;105388;-61
2023/08/01 09:19:02;;;;;;;3.10;2.80;;;;;;;18.80;100.00;95230.34;4970506;28;105820;-62
2023/08/01 09:21:34;;;;;;;2.93;2.73;;;;;;;18.78;100.00;95221.78;4970453;28;101984;-62
2023/08/01 09:24:09;;;;;;;4.57;2.90;;;;;;;18.76;100.00;95245.56;4971114;28;105400;-62
2023/08/01 09:26:36;;;;;;;2.70;2.50;;;;;;;18.75;100.00;95228.63;4971807;28;103256;-61
2023/08/01 09:29:03;;;;;;;3.43;2.97;;;;;;;18.82;100.00;95225.41;4972125;28;101838;-62
2023/08/01 09:31:31;;;;;;;2.93;2.70;;;;;;;18.79;100.00;95229.53;4972458;28;102604;-62
2023/08/01 09:33:58;;;;;;;3.40;2.67;;;;;;;18.71;100.00;95240.38;4974034;28;103278;-62
2023/08/01 09:36:25;;;;;;;3.07;2.77;;;;;;;18.66;100.00;95230.59;4972151;28;103396;-62
2023/08/01 09:39:00;;;;;;;4.50;4.10;;;;;;;18.75;100.00;95225.91;4970016;28;105577;-61
2023/08/01 09:41:27;;;;;;;3.17;2.87;;;;;;;18.77;100.00;95202.16;4954467;28;101931;-62
2023/08/01 09:43:54;;;;;;;3.10;2.80;;;;;;;18.80;100.00;95203.41;4970616;28;103878;-62
2023/08/01 09:46:20;;;;;;;4.20;2.97;;;;;;;18.65;100.00;95195.91;4971286;28;102988;-62
2023/08/01 09:48:47;;;;;;;3.10;2.80;;;;;;;18.93;100.00;95191.53;4972052;28;101843;-62
2023/08/01 09:51:15;;;;;;;2.80;2.60;;;;;;;18.97;100.00;95192.47;4970845;28;105443;-62
2023/08/01 09:53:52;;;;;;;3.10;2.77;;;;;;;18.92;100.00;95185.34;4970000;28;105138;-62
2023/08/01 09:56:22;;;;;;;3.70;3.10;;;;;;;19.01;100.00;95198.78;4975445;28;102230;-61
2023/08/01 09:58:50;;;;;;;2.90;2.70;;;;;;;19.02;100.00;95186.88;4971012;28;103142;-62
2023/08/01 10:01:18;;;;;;;3.00;2.37;;;;;;;19.11;100.00;95184.88;4970321;28;101958;-62
2023/08/01 10:03:48;;;;;;;2.93;2.57;;;;;;;19.09;100.00;95184.41;4971731;28;102982;-62
2023/08/01 10:06:19;;;;;;;2.97;2.53;;;;;;;19.18;100.00;95193.22;4970810;28;102677;-62
2023/08/01 10:08:47;;;;;;;3.20;2.90;;;;;;;19.18;100.00;95204.00;4971919;28;102109;-62
2023/08/01 10:11:16;;;;;;;2.97;2.60;;;;;;;19.37;100.00;95209.69;4971561;28;102451;-62
2023/08/01 10:13:45;;;;;;;2.83;2.63;;;;;;;19.56;100.00;95204.56;4969442;28;105320;-62
2023/08/01 10:16:12;;;;;;;3.07;2.83;;;;;;;19.70;100.00;95211.22;4974799;28;101843;-62
2023/08/01 10:18:40;;;;;;;2.97;2.67;;;;;;;19.82;100.00;95223.91;4969324;28;105670;-62
2023/08/01 10:21:09;;;;;;;2.80;2.60;;;;;;;19.70;100.00;95232.00;4971299;28;102135;-61
2023/08/01 10:23:37;;;;;;;3.17;2.60;;;;;;;19.82;100.00;95227.41;4969856;28;105656;-62
2023/08/01 10:26:06;;;;;;;2.70;2.50;;;;;;;19.77;100.00;95249.19;4969159;28;105490;-62
2023/08/01 10:28:33;;;;;;;9.00;5.23;;;;;;;19.77;100.00;95248.41;4971062;28;101992;-62
2023/08/01 10:31:12;;;;;;;3.23;2.93;;;;;;;19.69;100.00;95252.00;4971471;28;102162;-62
2023/08/01 10:33:41;;;;;;;3.60;2.90;;;;;;;19.78;100.00;95258.09;4970479;28;102713;-62
2023/08/01 10:36:15;;;;;;;3.07;2.77;;;;;;;19.75;100.00;95261.44;4969808;28;102263;-62
2023/08/01 10:38:47;;;;;;;3.37;2.70;;;;;;;19.95;100.00;95271.38;4974002;28;102418;-62
2023/08/01 10:41:22;;;;;;;2.90;2.70;;;;;;;19.87;100.00;95275.75;4969599;28;101951;-62
2023/08/01 10:43:49;;;;;;;4.13;2.80;;;;;;;19.90;100.00;95274.28;4970836;28;102973;-62
2023/08/01 10:46:18;;;;;;;2.93;2.73;;;;;;;20.00;100.00;95273.84;4969016;28;105804;-62
2023/08/01 10:48:53;;;;;;;3.37;3.07;;;;;;;20.14;100.00;95287.81;4971078;28;101834;-62
2023/08/01 10:51:20;;;;;;;3.63;3.10;;;;;;;19.91;100.00;95297.44;4970935;28;102420;-62
2023/08/01 10:53:47;;;;;;;3.97;3.57;;;;;;;19.98;100.00;95297.66;4970425;28;103144;-62
2023/08/01 10:56:19;;;;;;;4.70;3.60;;;;;;;19.81;100.00;95298.66;4969719;28;102006;-61
2023/08/01 10:58:46;;;;;;;5.47;3.40;;;;;;;19.99;100.00;95300.03;5002743;28;105474;-62
2023/08/01 11:01:13;;;;;;;3.90;2.97;;;;;;;20.22;100.00;95297.75;4972465;28;105536;-62
2023/08/01 11:03:41;;;;;;;3.87;3.20;;;;;;;20.37;100.00;95305.94;4969267;28;105343;-62
2023/08/01 11:06:08;;;;;;;3.30;3.00;;;;;;;20.73;100.00;95305.94;4970137;28;102602;-62
2023/08/01 11:08:36;;;;;;;4.10;3.33;;;;;;;20.76;100.00;95299.06;4970772;28;101849;-62
2023/08/01 11:11:05;;;;;;;3.37;3.07;;;;;;;20.55;100.00;95301.13;4970545;28;102363;-62
2023/08/01 11:13:34;;;;;;;6.23;3.63;;;;;;;20.67;100.00;95301.91;4969948;28;102676;-62
2023/08/01 11:16:04;;;;;;;4.57;3.77;;;;;;;20.68;100.00;95313.47;4970601;28;102056;-62
2023/08/01 11:18:31;;;;;;;3.80;3.40;;;;;;;20.08;100.00;95306.16;4969130;28;105324;-62